createdAt,value
2022-08-03T00:01:39.795Z,99.90
2022-08-03T00:04:08.008Z,99.90
2022-08-03T00:06:37.285Z,99.90
2022-08-03T00:09:08.419Z,99.90
2022-08-03T00:11:37.659Z,99.90
2022-08-03T00:14:09.045Z,99.90
2022-08-03T00:16:36.962Z,99.90
2022-08-03T00:19:05.084Z,99.90
2022-08-03T00:21:33.017Z,99.90
2022-08-03T00:24:00.880Z,99.90
2022-08-03T00:26:28.738Z,99.90
2022-08-03T00:28:56.625Z,99.90
2022-08-03T00:31:40.172Z,99.90
2022-08-03T00:34:12.506Z,99.90
2022-08-03T00:36:43.472Z,99.90
2022-08-03T00:39:11.443Z,99.90
2022-08-03T00:41:42.297Z,99.90
2022-08-03T00:44:10.163Z,99.90
2022-08-03T00:46:37.977Z,99.90
2022-08-03T00:49:05.935Z,99.90
2022-08-03T00:51:35.009Z,99.90
2022-08-03T00:54:02.886Z,99.90
2022-08-03T00:56:30.736Z,99.90
2022-08-03T00:58:59.833Z,99.90
2022-08-03T01:01:32.171Z,99.90
2022-08-03T01:04:00.659Z,99.90
2022-08-03T01:06:37.197Z,99.90
2022-08-03T01:09:12.335Z,99.90
2022-08-03T01:12:01.915Z,99.90
2022-08-03T01:14:34.893Z,99.90
2022-08-03T01:17:23.034Z,99.90
2022-08-03T01:19:54.954Z,99.90
2022-08-03T01:22:32.656Z,99.90
2022-08-03T01:25:07.284Z,99.90
2022-08-03T01:27:48.406Z,99.90
2022-08-03T01:30:16.490Z,99.90
2022-08-03T01:33:00.861Z,99.90
2022-08-03T01:35:58.803Z,99.90
2022-08-03T01:38:29.884Z,99.90
2022-08-03T01:40:58.132Z,99.90
2022-08-03T01:44:28.643Z,99.90
2022-08-03T01:46:18.205Z,99.90
2022-08-03T01:48:47.285Z,99.90
2022-08-03T01:51:16.741Z,99.90
2022-08-03T01:53:45.604Z,99.90
2022-08-03T01:56:14.363Z,99.90
2022-08-03T01:58:42.871Z,99.90
2022-08-03T02:01:14.383Z,99.90
2022-08-03T02:03:59.917Z,99.90
2022-08-03T02:07:01.437Z,99.90
2022-08-03T02:09:19.338Z,99.90
2022-08-03T02:11:47.866Z,99.90
2022-08-03T02:14:17.043Z,99.90
2022-08-03T02:16:45.936Z,99.90
2022-08-03T02:19:14.486Z,99.90
2022-08-03T02:21:57.234Z,99.90
2022-08-03T02:24:31.851Z,99.90
2022-08-03T02:27:03.951Z,99.90
2022-08-03T02:29:39.824Z,99.90
2022-08-03T02:32:15.405Z,99.90
2022-08-03T02:34:45.754Z,99.90
2022-08-03T02:37:14.599Z,99.90
2022-08-03T02:39:43.966Z,99.90
2022-08-03T02:42:13.095Z,99.90
2022-08-03T02:44:42.664Z,99.90
2022-08-03T02:47:12.406Z,99.90
2022-08-03T02:49:50.821Z,99.90
2022-08-03T02:52:22.154Z,99.90
2022-08-03T02:54:52.183Z,99.90
2022-08-03T02:57:21.102Z,99.90
2022-08-03T02:59:49.310Z,99.90
2022-08-03T03:02:18.259Z,99.90
2022-08-03T03:05:50.559Z,99.90
2022-08-03T03:07:51.318Z,99.90
2022-08-03T03:10:22.588Z,99.90
2022-08-03T03:12:54.567Z,99.90
2022-08-03T03:15:22.657Z,99.90
2022-08-03T03:21:36.438Z,99.90
2022-08-03T03:24:04.819Z,99.90
2022-08-03T03:26:33.190Z,99.90
2022-08-03T03:29:02.274Z,99.90
2022-08-03T03:31:30.485Z,99.90
2022-08-03T03:34:01.264Z,99.90
2022-08-03T03:36:29.141Z,99.90
2022-08-03T03:38:56.963Z,99.90
2022-08-03T03:41:25.083Z,99.90
2022-08-03T03:43:52.955Z,99.90
2022-08-03T03:46:21.078Z,99.90
2022-08-03T03:48:49.188Z,99.90
2022-08-03T03:51:17.729Z,99.90
2022-08-03T03:54:08.044Z,99.90
2022-08-03T03:56:36.146Z,99.90
2022-08-03T03:59:04.135Z,99.90
2022-08-03T04:01:32.201Z,99.90
2022-08-03T04:04:20.006Z,99.90
2022-08-03T04:07:07.123Z,99.90
2022-08-03T04:09:59.238Z,99.90
2022-08-03T04:12:37.773Z,99.90
2022-08-03T04:15:19.102Z,99.90
2022-08-03T04:17:47.995Z,99.90
2022-08-03T04:20:16.399Z,99.90
2022-08-03T04:22:44.246Z,99.90
2022-08-03T04:25:17.976Z,99.90
2022-08-03T04:28:28.327Z,99.90
2022-08-03T04:30:37.178Z,99.90
2022-08-03T04:33:05.038Z,99.90
2022-08-03T04:35:59.717Z,99.90
2022-08-03T04:38:25.864Z,99.90
2022-08-03T04:40:53.931Z,99.90
2022-08-03T04:43:22.279Z,99.90
2022-08-03T04:45:50.797Z,99.90
2022-08-03T04:48:18.630Z,99.90
2022-08-03T04:50:47.675Z,99.90
2022-08-03T04:53:15.496Z,99.90
2022-08-03T04:55:43.610Z,99.90
2022-08-03T04:58:11.549Z,99.90
2022-08-03T05:00:39.591Z,99.90
2022-08-03T05:03:24.040Z,99.90
2022-08-03T05:05:53.090Z,99.90
2022-08-03T05:08:30.130Z,99.90
2022-08-03T05:10:59.697Z,99.90
2022-08-03T05:13:27.636Z,99.90
2022-08-03T05:15:55.441Z,99.90
2022-08-03T05:18:23.471Z,99.90
2022-08-03T05:20:55.570Z,99.90
2022-08-03T05:23:25.818Z,99.90
2022-08-03T05:25:53.685Z,99.90
2022-08-03T05:28:23.290Z,99.90
2022-08-03T05:30:51.217Z,99.90
2022-08-03T05:33:19.013Z,99.90
2022-08-03T05:36:01.088Z,99.90
2022-08-03T05:38:34.667Z,99.90
2022-08-03T05:41:22.132Z,99.90
2022-08-03T05:43:52.511Z,99.90
2022-08-03T05:46:20.560Z,99.90
2022-08-03T05:48:48.393Z,99.90
2022-08-03T05:51:16.306Z,99.90
2022-08-03T05:53:44.486Z,99.90
2022-08-03T05:56:16.038Z,99.90
2022-08-03T05:58:45.517Z,99.90
2022-08-03T06:01:13.494Z,99.90
2022-08-03T06:03:41.636Z,99.90
2022-08-03T06:06:09.475Z,99.90
2022-08-03T06:08:39.736Z,99.90
2022-08-03T06:11:12.527Z,99.90
2022-08-03T06:13:40.494Z,99.90
2022-08-03T06:16:08.451Z,99.90
2022-08-03T06:18:36.918Z,99.90
2022-08-03T06:21:14.759Z,99.90
2022-08-03T06:23:55.102Z,99.90
2022-08-03T06:26:27.728Z,99.90
2022-08-03T06:28:56.005Z,99.90
2022-08-03T06:31:32.308Z,99.90
2022-08-03T06:34:33.864Z,99.90
2022-08-03T06:37:02.346Z,99.90
2022-08-03T06:39:30.651Z,99.90
2022-08-03T06:41:59.182Z,99.90
2022-08-03T06:44:27.251Z,99.90
2022-08-03T06:46:55.293Z,99.90
2022-08-03T06:49:23.339Z,99.90
2022-08-03T06:52:05.469Z,99.90
2022-08-03T06:54:34.328Z,99.90
2022-08-03T06:57:02.313Z,99.90
2022-08-03T07:00:10.264Z,99.90
2022-08-03T07:02:20.161Z,99.90
2022-08-03T07:04:51.349Z,99.90
2022-08-03T07:07:20.370Z,99.90
2022-08-03T07:09:56.804Z,99.90
2022-08-03T07:12:26.442Z,99.90
2022-08-03T07:15:00.684Z,99.90
2022-08-03T07:17:29.508Z,99.90
2022-08-03T07:19:57.870Z,99.90
2022-08-03T07:22:25.770Z,99.90
2022-08-03T07:24:53.646Z,99.90
2022-08-03T07:27:21.557Z,99.90
2022-08-03T07:29:49.374Z,99.90
2022-08-03T07:32:17.512Z,99.90
2022-08-03T07:34:45.537Z,99.90
2022-08-03T07:37:13.574Z,99.90
2022-08-03T07:39:41.374Z,99.90
2022-08-03T07:42:09.554Z,99.90
2022-08-03T07:44:37.388Z,99.90
2022-08-03T07:47:05.280Z,99.90
2022-08-03T07:49:33.424Z,99.90
2022-08-03T07:52:20.092Z,99.90
2022-08-03T07:54:47.963Z,99.90
2022-08-03T07:57:15.783Z,99.90
2022-08-03T07:59:56.665Z,99.90
2022-08-03T08:02:40.980Z,99.90
2022-08-03T08:05:09.098Z,99.90
2022-08-03T08:07:36.930Z,99.90
2022-08-03T08:10:06.964Z,99.90
2022-08-03T08:15:46.549Z,99.90
2022-08-03T08:18:15.439Z,99.90
2022-08-03T08:20:43.367Z,99.90
2022-08-03T08:23:24.221Z,99.80
2022-08-03T08:26:01.244Z,99.60
2022-08-03T08:28:33.529Z,98.90
2022-08-03T08:31:02.374Z,98.60
2022-08-03T08:33:42.497Z,98.10
2022-08-03T08:36:16.158Z,97.40
2022-08-03T08:38:45.557Z,97.30
2022-08-03T08:41:14.585Z,96.60
2022-08-03T08:43:42.894Z,95.70
2022-08-03T08:46:23.074Z,95.40
2022-08-03T08:48:52.515Z,95.40
2022-08-03T08:51:21.158Z,96.30
2022-08-03T08:53:51.877Z,94.70
2022-08-03T08:56:21.061Z,94.50
2022-08-03T08:58:52.605Z,94.80
2022-08-03T09:01:21.602Z,94.80
2022-08-03T09:03:57.072Z,93.60
2022-08-03T09:06:25.092Z,93.10
2022-08-03T09:08:53.242Z,93.80
2022-08-03T09:11:52.379Z,93.40
2022-08-03T09:14:36.739Z,93.10
2022-08-03T09:17:03.320Z,93.00
2022-08-03T09:19:32.059Z,92.90
2022-08-03T09:22:31.070Z,92.40
2022-08-03T09:25:22.817Z,91.10
2022-08-03T09:27:48.193Z,91.50
2022-08-03T09:30:33.460Z,90.60
2022-08-03T09:33:06.601Z,89.70
2022-08-03T09:38:25.345Z,84.90
2022-08-03T09:40:58.838Z,84.10
2022-08-03T09:43:28.717Z,86.60
2022-08-03T09:46:06.383Z,82.40
2022-08-03T09:48:38.411Z,85.00
2022-08-03T09:51:12.847Z,83.00
2022-08-03T09:53:58.894Z,82.00
2022-08-03T09:56:47.862Z,81.80
2022-08-03T09:59:24.660Z,81.40
2022-08-03T10:01:54.046Z,83.00
2022-08-03T10:04:22.362Z,81.30
2022-08-03T10:07:07.187Z,81.50
2022-08-03T10:09:35.170Z,80.20
2022-08-03T10:12:12.849Z,79.00
2022-08-03T10:14:42.857Z,78.80
2022-08-03T10:17:10.760Z,76.80
2022-08-03T10:19:39.217Z,77.00
2022-08-03T10:22:16.418Z,76.80
2022-08-03T10:24:56.451Z,75.80
2022-08-03T10:27:24.969Z,77.60
2022-08-03T10:29:54.655Z,74.10
2022-08-03T10:32:35.293Z,73.90
2022-08-03T10:35:20.467Z,74.90
2022-08-03T10:38:08.893Z,75.10
2022-08-03T10:40:49.951Z,75.60
2022-08-03T10:43:20.820Z,73.30
2022-08-03T10:46:01.065Z,71.40
2022-08-03T10:48:30.846Z,73.90
2022-08-03T10:50:58.833Z,71.70
2022-08-03T10:53:37.498Z,72.80
2022-08-03T10:56:50.413Z,72.10
2022-08-03T10:59:38.545Z,71.50
2022-08-03T11:02:09.460Z,70.50
2022-08-03T11:04:37.388Z,71.10
2022-08-03T11:07:18.580Z,69.00
2022-08-03T11:09:49.531Z,68.50
2022-08-03T11:12:30.409Z,69.40
2022-08-03T11:15:03.356Z,69.60
2022-08-03T11:17:31.523Z,69.50
2022-08-03T11:19:59.541Z,69.40
2022-08-03T11:22:47.400Z,67.60
2022-08-03T11:25:53.893Z,65.50
2022-08-03T11:28:28.058Z,60.50
2022-08-03T11:31:39.590Z,62.40
2022-08-03T11:34:07.765Z,62.60
2022-08-03T11:36:54.686Z,62.40
2022-08-03T11:39:24.889Z,64.60
2022-08-03T11:41:52.835Z,63.80
2022-08-03T11:44:39.440Z,64.10
2022-08-03T11:47:07.471Z,64.10
2022-08-03T11:49:35.675Z,63.50
2022-08-03T11:52:03.663Z,63.00
2022-08-03T11:54:31.675Z,64.10
2022-08-03T11:56:59.639Z,62.90
2022-08-03T12:02:10.307Z,63.70
2022-08-03T12:04:54.331Z,64.20
2022-08-03T12:07:25.867Z,63.70
2022-08-03T12:10:11.310Z,63.00
2022-08-03T12:12:44.538Z,61.20
2022-08-03T12:15:14.676Z,61.10
2022-08-03T12:17:42.840Z,62.00
2022-08-03T12:20:11.404Z,64.20
2022-08-03T12:22:40.480Z,61.20
2022-08-03T12:25:21.103Z,60.50
2022-08-03T12:28:36.278Z,59.90
2022-08-03T12:31:05.521Z,59.60
2022-08-03T12:33:34.155Z,60.20
2022-08-03T12:36:09.384Z,59.60
2022-08-03T12:38:39.433Z,59.40
2022-08-03T12:41:09.800Z,59.60
2022-08-03T12:43:39.654Z,60.10
2022-08-03T12:46:14.806Z,58.70
2022-08-03T12:49:01.304Z,60.00
2022-08-03T12:51:29.980Z,59.20
2022-08-03T12:53:58.687Z,58.70
2022-08-03T12:56:26.877Z,58.90
2022-08-03T12:58:54.770Z,58.30
2022-08-03T13:01:25.966Z,59.10
2022-08-03T13:04:01.631Z,59.40
2022-08-03T13:06:29.601Z,58.50
2022-08-03T13:09:07.674Z,59.30
2022-08-03T13:11:57.995Z,59.00
2022-08-03T13:14:23.959Z,57.90
2022-08-03T13:16:52.003Z,58.50
2022-08-03T13:19:19.958Z,57.70
2022-08-03T13:21:53.362Z,58.60
2022-08-03T13:24:33.105Z,58.80
2022-08-03T13:27:22.466Z,57.40
2022-08-03T13:29:49.791Z,58.80
2022-08-03T13:32:17.820Z,59.70
2022-08-03T13:34:45.836Z,56.70
2022-08-03T13:37:14.180Z,57.80
2022-08-03T13:39:57.973Z,57.40
2022-08-03T13:42:28.385Z,57.70
2022-08-03T13:44:56.281Z,58.10
2022-08-03T13:47:24.330Z,57.20
2022-08-03T13:49:59.484Z,57.60
2022-08-03T13:52:29.272Z,57.60
2022-08-03T13:54:57.194Z,58.80
2022-08-03T13:58:03.079Z,58.20
2022-08-03T14:00:13.337Z,57.90
2022-08-03T14:03:02.842Z,57.20
2022-08-03T14:05:33.894Z,56.40
2022-08-03T14:08:04.360Z,56.00
2022-08-03T14:10:37.658Z,56.20
2022-08-03T14:13:06.478Z,54.90
2022-08-03T14:15:38.209Z,55.40
2022-08-03T14:18:12.828Z,56.40
2022-08-03T14:20:47.915Z,55.90
2022-08-03T14:23:18.534Z,57.00
2022-08-03T14:25:51.493Z,54.90
2022-08-03T14:32:09.476Z,56.20
2022-08-03T14:34:25.612Z,56.50
2022-08-03T14:36:55.356Z,54.80
2022-08-03T14:39:23.477Z,55.30
2022-08-03T14:41:51.477Z,55.30
2022-08-03T14:44:22.515Z,56.00
2022-08-03T14:46:56.577Z,54.50
2022-08-03T14:50:38.284Z,54.60
2022-08-03T14:52:12.452Z,55.70
2022-08-03T14:54:40.375Z,54.30
2022-08-03T14:57:08.275Z,54.30
2022-08-03T14:59:54.144Z,55.10
2022-08-03T15:02:24.442Z,55.60
2022-08-03T15:04:52.778Z,54.70
2022-08-03T15:07:21.604Z,55.00
2022-08-03T15:09:49.733Z,56.30
2022-08-03T15:12:17.764Z,54.80
2022-08-03T15:14:45.665Z,56.70
2022-08-03T15:17:13.630Z,55.00
2022-08-03T15:20:03.627Z,54.80
2022-08-03T15:22:34.645Z,54.20
2022-08-03T15:26:03.150Z,54.80
2022-08-03T15:28:04.168Z,55.80
2022-08-03T15:30:36.164Z,54.70
2022-08-03T15:33:04.439Z,55.80
2022-08-03T15:35:32.441Z,54.70
2022-08-03T15:38:00.390Z,54.60
2022-08-03T15:40:28.479Z,54.80
2022-08-03T15:42:56.385Z,54.40
2022-08-03T15:45:24.286Z,55.10
2022-08-03T15:47:55.753Z,54.40
2022-08-03T15:50:23.643Z,54.50
2022-08-03T15:52:51.595Z,54.10
2022-08-03T15:55:19.573Z,55.00
2022-08-03T15:59:04.360Z,55.20
2022-08-03T16:00:35.417Z,54.60
2022-08-03T16:03:03.363Z,54.30
2022-08-03T16:05:31.303Z,54.50
2022-08-03T16:08:03.512Z,54.90
2022-08-03T16:10:32.870Z,56.00
2022-08-03T16:13:01.053Z,55.40
2022-08-03T16:15:29.175Z,55.80
2022-08-03T16:17:57.072Z,55.50
2022-08-03T16:20:31.479Z,55.80
2022-08-03T16:23:07.019Z,56.70
2022-08-03T16:25:39.314Z,56.30
2022-08-03T16:28:13.034Z,56.90
2022-08-03T16:30:43.031Z,56.60
2022-08-03T16:33:11.674Z,56.50
2022-08-03T16:35:46.376Z,57.10
2022-08-03T16:42:18.712Z,57.00
2022-08-03T16:44:49.354Z,57.00
2022-08-03T16:47:21.766Z,57.00
2022-08-03T16:49:54.161Z,57.20
2022-08-03T16:52:25.027Z,57.90
2022-08-03T16:54:53.647Z,57.80
2022-08-03T16:57:56.572Z,58.00
2022-08-03T17:00:33.140Z,57.50
2022-08-03T17:03:04.404Z,57.60
2022-08-03T17:05:46.864Z,57.20
2022-08-03T17:08:15.550Z,57.90
2022-08-03T17:10:46.647Z,58.00
2022-08-03T17:13:21.892Z,58.00
2022-08-03T17:15:57.759Z,58.00
2022-08-03T17:18:35.227Z,57.90
2022-08-03T17:21:05.064Z,58.00
2022-08-03T17:23:35.953Z,58.00
2022-08-03T17:26:08.937Z,58.20
2022-08-03T17:28:50.200Z,58.70
2022-08-03T17:31:31.259Z,57.70
2022-08-03T17:34:01.672Z,58.60
2022-08-03T17:36:53.941Z,58.20
2022-08-03T17:39:30.791Z,58.90
2022-08-03T17:42:30.343Z,59.90
2022-08-03T17:44:57.315Z,60.10
2022-08-03T17:47:42.948Z,63.10
2022-08-03T17:50:25.254Z,62.40
2022-08-03T17:53:07.125Z,63.40
2022-08-03T17:55:55.281Z,65.80
2022-08-03T17:58:39.571Z,66.00
2022-08-03T18:02:00.679Z,66.00
2022-08-03T18:04:30.049Z,67.20
2022-08-03T18:07:00.520Z,66.30
2022-08-03T18:10:04.423Z,66.90
2022-08-03T18:12:30.489Z,68.40
2022-08-03T18:15:08.355Z,71.70
2022-08-03T18:17:58.152Z,72.30
2022-08-03T18:20:31.171Z,73.20
2022-08-03T18:23:04.900Z,73.00
2022-08-03T18:25:49.056Z,74.80
2022-08-03T18:28:18.741Z,73.80
2022-08-03T18:30:53.596Z,75.00
2022-08-03T18:34:17.625Z,75.60
2022-08-03T18:36:29.621Z,76.40
2022-08-03T18:39:01.727Z,77.40
2022-08-03T18:41:34.661Z,78.30
2022-08-03T18:44:09.477Z,78.90
2022-08-03T18:46:57.743Z,79.00
2022-08-03T18:49:41.115Z,79.40
2022-08-03T18:52:19.472Z,78.80
2022-08-03T18:55:01.114Z,79.10
2022-08-03T18:57:44.665Z,79.50
2022-08-03T19:00:17.151Z,79.60
2022-08-03T19:03:08.269Z,80.40
2022-08-03T19:06:02.418Z,79.90
2022-08-03T19:09:03.077Z,80.40
2022-08-03T19:12:10.973Z,81.00
2022-08-03T19:14:49.699Z,82.70
2022-08-03T19:17:21.248Z,82.60
2022-08-03T19:19:51.697Z,83.10
2022-08-03T19:22:24.506Z,83.00
2022-08-03T19:24:56.410Z,83.40
2022-08-03T19:27:27.508Z,83.80
2022-08-03T19:30:00.140Z,84.80
2022-08-03T19:32:30.974Z,85.10
2022-08-03T19:34:59.931Z,85.50
2022-08-03T19:37:38.507Z,85.80
2022-08-03T19:40:10.754Z,86.50
2022-08-03T19:42:41.755Z,87.50
2022-08-03T19:45:14.120Z,87.70
2022-08-03T19:47:59.410Z,88.10
2022-08-03T19:50:27.739Z,89.00
2022-08-03T19:52:58.878Z,89.20
2022-08-03T19:55:28.163Z,89.60
2022-08-03T19:58:02.185Z,89.60
2022-08-03T20:00:37.051Z,89.70
2022-08-03T20:03:07.193Z,90.00
2022-08-03T20:05:52.305Z,90.30
2022-08-03T20:08:22.964Z,90.30
2022-08-03T20:10:51.465Z,90.40
2022-08-03T20:13:20.221Z,90.40
2022-08-03T20:15:48.590Z,90.40
2022-08-03T20:18:21.497Z,90.50
2022-08-03T20:20:51.592Z,90.50
2022-08-03T20:23:20.302Z,90.60
2022-08-03T20:25:58.626Z,90.60
2022-08-03T20:28:30.825Z,91.00
2022-08-03T20:31:00.009Z,91.30
2022-08-03T20:33:46.679Z,91.30
2022-08-03T20:36:20.653Z,91.80
2022-08-03T20:38:57.305Z,91.70
2022-08-03T20:41:26.105Z,92.00
2022-08-03T20:43:54.106Z,91.90
2022-08-03T20:46:31.839Z,92.00
2022-08-03T20:49:06.660Z,92.10
2022-08-03T20:51:49.061Z,92.60
2022-08-03T20:54:22.962Z,92.70
2022-08-03T20:56:58.869Z,92.80
2022-08-03T20:59:36.886Z,93.00
2022-08-03T21:02:19.119Z,93.30
2022-08-03T21:04:47.878Z,93.30
2022-08-03T21:07:23.886Z,93.60
2022-08-03T21:09:53.678Z,93.90
2022-08-03T21:12:44.012Z,93.90
2022-08-03T21:16:01.133Z,94.00
2022-08-03T21:18:06.622Z,94.10
2022-08-03T21:20:35.639Z,94.30
2022-08-03T21:23:04.382Z,94.30
2022-08-03T21:25:33.229Z,94.30
2022-08-03T21:28:01.967Z,94.30
2022-08-03T21:30:30.719Z,94.30
2022-08-03T21:32:59.115Z,94.40
2022-08-03T21:35:27.485Z,94.60
2022-08-03T21:38:13.859Z,94.30
2022-08-03T21:40:41.964Z,94.40
2022-08-03T21:43:09.968Z,94.50
2022-08-03T21:45:45.429Z,94.50
2022-08-03T21:48:14.419Z,94.90
2022-08-03T21:50:43.416Z,95.00
2022-08-03T21:53:12.100Z,95.70
2022-08-03T21:55:41.169Z,95.10
2022-08-03T21:58:09.899Z,95.40
2022-08-03T22:00:37.819Z,95.70
2022-08-03T22:03:15.294Z,95.80
2022-08-03T22:05:47.092Z,96.00
2022-08-03T22:08:19.750Z,96.80
2022-08-03T22:10:48.359Z,96.90
2022-08-03T22:13:21.923Z,97.20
2022-08-03T22:16:05.740Z,97.60
2022-08-03T22:18:34.093Z,97.50
2022-08-03T22:21:02.626Z,97.60
2022-08-03T22:23:31.501Z,97.80
2022-08-03T22:26:00.946Z,98.00
2022-08-03T22:28:31.174Z,98.30
2022-08-03T22:31:00.030Z,98.50
2022-08-03T22:33:49.093Z,99.00
2022-08-03T22:36:21.532Z,99.30
2022-08-03T22:38:49.478Z,99.40
2022-08-03T22:41:17.642Z,99.40
2022-08-03T22:43:48.527Z,99.50
2022-08-03T22:46:22.080Z,99.50
2022-08-03T22:48:52.934Z,99.70
2022-08-03T22:51:34.459Z,99.90
2022-08-03T22:54:05.094Z,99.90
2022-08-03T22:56:37.333Z,99.90
2022-08-03T22:59:40.390Z,99.90
2022-08-03T23:02:20.290Z,99.90
2022-08-03T23:04:55.289Z,99.90
2022-08-03T23:07:32.557Z,99.90
2022-08-03T23:10:02.379Z,99.90
2022-08-03T23:12:34.165Z,99.90
2022-08-03T23:15:03.956Z,99.90
2022-08-03T23:17:34.844Z,99.90
2022-08-03T23:20:27.064Z,99.90
2022-08-03T23:22:58.991Z,99.90
2022-08-03T23:25:34.538Z,99.90
2022-08-03T23:28:05.642Z,99.90
2022-08-03T23:30:36.210Z,99.90
2022-08-03T23:33:05.401Z,99.90
2022-08-03T23:36:17.238Z,99.90
2022-08-03T23:38:43.984Z,99.90
2022-08-03T23:41:13.778Z,99.90
2022-08-03T23:43:51.903Z,99.90
2022-08-03T23:46:25.558Z,99.90
2022-08-03T23:48:56.695Z,99.90
2022-08-03T23:51:39.654Z,99.90
2022-08-03T23:54:25.421Z,99.90
2022-08-03T23:57:00.250Z,99.90
2022-08-03T23:59:49.854Z,99.90
